createdAt,value
2024-03-24T00:00:06.798Z,100.87
2024-03-24T00:01:06.882Z,108.13
2024-03-24T00:02:06.943Z,113.61
2024-03-24T00:03:07.046Z,119.59
2024-03-24T00:04:07.197Z,123.74
2024-03-24T00:05:07.259Z,125.26
2024-03-24T00:06:07.314Z,129.73
2024-03-24T00:07:07.449Z,127.39
2024-03-24T00:08:07.475Z,133.56
2024-03-24T00:09:07.558Z,135.32
2024-03-24T00:10:07.683Z,136.05
2024-03-24T00:11:07.866Z,137.21
2024-03-24T00:12:07.838Z,135.43
2024-03-24T00:13:07.952Z,137.57
2024-03-24T00:14:07.988Z,136.71
2024-03-24T00:15:08.096Z,133.39
2024-03-24T00:16:08.171Z,135.62
2024-03-24T00:17:08.243Z,135.49
2024-03-24T00:18:08.322Z,132.10
2024-03-24T00:19:08.419Z,133.04
2024-03-24T00:20:08.494Z,129.36
2024-03-24T00:21:08.551Z,127.07
2024-03-24T00:22:08.667Z,130.68
2024-03-24T00:23:08.724Z,128.78
2024-03-24T00:24:08.767Z,129.85
2024-03-24T00:25:08.893Z,135.27
2024-03-24T00:26:08.936Z,137.58
2024-03-24T00:27:09.018Z,139.44
2024-03-24T00:28:09.109Z,141.82
2024-03-24T00:29:09.167Z,144.21
2024-03-24T00:30:09.232Z,146.01
2024-03-24T00:31:09.376Z,148.82
2024-03-24T00:32:09.438Z,153.78
2024-03-24T00:33:09.478Z,153.71
2024-03-24T00:34:09.590Z,156.79
2024-03-24T00:35:09.650Z,158.48
2024-03-24T00:36:09.730Z,160.43
2024-03-24T00:37:09.860Z,161.72
2024-03-24T00:38:09.888Z,163.02
2024-03-24T00:39:09.980Z,164.68
2024-03-24T00:40:10.099Z,167.67
2024-03-24T00:41:10.110Z,167.47
2024-03-24T00:42:10.225Z,169.89
2024-03-24T00:43:10.321Z,170.30
2024-03-24T00:44:10.392Z,171.59
2024-03-24T00:45:10.450Z,174.35
2024-03-24T00:46:10.526Z,174.29
2024-03-24T00:47:10.612Z,176.09
2024-03-24T00:48:10.681Z,177.75
2024-03-24T00:49:10.777Z,178.14
2024-03-24T00:50:10.844Z,179.12
2024-03-24T00:51:10.952Z,178.14
2024-03-24T00:52:11.010Z,178.92
2024-03-24T00:53:11.076Z,180.44
2024-03-24T00:54:11.156Z,180.76
2024-03-24T00:55:11.243Z,181.79
2024-03-24T00:56:11.322Z,182.54
2024-03-24T00:57:11.405Z,182.09
2024-03-24T00:58:11.520Z,183.14
2024-03-24T00:59:11.573Z,182.53
2024-03-24T01:00:11.677Z,185.70
2024-03-24T01:01:11.814Z,185.64
2024-03-24T01:02:11.848Z,185.57
2024-03-24T01:03:11.971Z,186.99
2024-03-24T01:04:12.004Z,185.57
2024-03-24T01:05:12.123Z,186.32
2024-03-24T01:06:12.181Z,186.41
2024-03-24T01:07:12.268Z,184.47
2024-03-24T01:08:12.362Z,186.64
2024-03-24T01:09:12.461Z,187.74
2024-03-24T01:10:12.555Z,187.28
2024-03-24T01:11:12.629Z,186.81
2024-03-24T01:12:12.679Z,186.94
2024-03-24T01:13:12.789Z,188.43
2024-03-24T01:14:12.899Z,188.22
2024-03-24T01:15:12.969Z,191.32
2024-03-24T01:16:13.059Z,192.78
2024-03-24T01:17:13.137Z,193.54
2024-03-24T01:18:13.230Z,195.55
2024-03-24T01:19:13.305Z,196.31
2024-03-24T01:20:13.403Z,196.01
2024-03-24T01:21:13.510Z,196.30
2024-03-24T01:22:13.564Z,194.94
2024-03-24T01:23:13.642Z,193.61
2024-03-24T01:24:13.706Z,193.86
2024-03-24T01:25:13.851Z,193.16
2024-03-24T01:26:13.903Z,193.52
2024-03-24T01:27:13.987Z,191.54
2024-03-24T01:28:14.058Z,189.20
2024-03-24T01:29:14.146Z,185.37
2024-03-24T01:30:14.242Z,185.23
2024-03-24T01:31:14.293Z,186.75
2024-03-24T01:32:14.392Z,185.90
2024-03-24T01:33:14.515Z,180.80
2024-03-24T01:34:14.588Z,178.89
2024-03-24T01:35:14.665Z,172.46
2024-03-24T01:36:14.743Z,171.96
2024-03-24T01:37:14.810Z,168.70
2024-03-24T01:38:14.908Z,167.55
2024-03-24T01:39:14.974Z,164.83
2024-03-24T01:40:15.140Z,165.19
2024-03-24T01:41:15.194Z,162.11
2024-03-24T01:42:15.291Z,163.62
2024-03-24T01:43:15.368Z,163.43
2024-03-24T01:44:15.441Z,161.09
2024-03-24T01:45:15.521Z,159.02
2024-03-24T01:46:15.695Z,157.14
2024-03-24T01:47:15.721Z,161.06
2024-03-24T01:48:15.832Z,159.59
2024-03-24T01:49:15.902Z,162.91
2024-03-24T01:50:16.000Z,162.09
2024-03-24T01:51:16.055Z,166.15
2024-03-24T01:52:16.178Z,166.02
2024-03-24T01:53:16.290Z,166.92
2024-03-24T01:54:16.369Z,168.86
2024-03-24T01:55:16.465Z,170.87
2024-03-24T01:56:16.515Z,172.88
2024-03-24T01:57:16.610Z,175.55
2024-03-24T01:58:16.710Z,177.39
2024-03-24T01:59:16.789Z,177.95
2024-03-24T02:00:16.864Z,179.23
2024-03-24T02:01:16.950Z,181.32
2024-03-24T02:02:17.056Z,180.94
2024-03-24T02:03:17.109Z,181.96
2024-03-24T02:04:17.178Z,182.59
2024-03-24T02:05:17.286Z,180.95
2024-03-24T02:06:17.348Z,181.62
2024-03-24T02:07:17.453Z,181.33
2024-03-24T02:08:17.562Z,186.78
2024-03-24T02:09:17.608Z,181.04
2024-03-24T02:10:17.683Z,184.89
2024-03-24T02:11:17.772Z,184.97
2024-03-24T02:12:17.898Z,184.71
2024-03-24T02:13:18.029Z,187.41
2024-03-24T02:14:18.120Z,185.13
2024-03-24T02:15:18.196Z,186.19
2024-03-24T02:16:18.271Z,188.09
2024-03-24T02:17:18.347Z,186.44
2024-03-24T02:18:18.495Z,186.78
2024-03-24T02:19:18.545Z,188.96
2024-03-24T02:20:18.629Z,188.36
2024-03-24T02:21:18.723Z,186.62
2024-03-24T02:22:18.829Z,186.80
2024-03-24T02:23:18.880Z,189.25
2024-03-24T02:24:18.993Z,190.16
2024-03-24T02:25:19.058Z,186.32
2024-03-24T02:26:19.134Z,188.38
2024-03-24T02:27:19.224Z,187.90
2024-03-24T02:28:19.349Z,187.48
2024-03-24T02:29:19.434Z,186.41
2024-03-24T02:30:19.495Z,188.07
2024-03-24T02:31:19.574Z,189.30
2024-03-24T02:32:19.654Z,188.62
2024-03-24T02:33:19.772Z,188.79
2024-03-24T02:34:19.841Z,188.79
2024-03-24T02:35:19.911Z,190.72
2024-03-24T02:36:20.000Z,191.01
2024-03-24T02:37:20.065Z,193.12
2024-03-24T02:38:20.159Z,189.67
2024-03-24T02:39:20.250Z,190.47
2024-03-24T02:40:20.378Z,190.86
2024-03-24T02:41:20.418Z,190.47
2024-03-24T02:42:20.496Z,190.67
2024-03-24T02:43:20.584Z,193.49
2024-03-24T02:44:20.695Z,192.55
2024-03-24T02:45:20.772Z,192.66
2024-03-24T02:46:20.852Z,192.88
2024-03-24T02:47:21.480Z,191.52
2024-03-24T02:48:21.022Z,193.18
2024-03-24T02:49:21.092Z,191.69
2024-03-24T02:50:21.213Z,193.47
2024-03-24T02:51:21.250Z,193.98
2024-03-24T02:52:21.363Z,194.80
2024-03-24T02:53:21.439Z,192.54
2024-03-24T02:54:21.514Z,196.11
2024-03-24T02:55:21.607Z,193.46
2024-03-24T02:56:21.667Z,191.99
2024-03-24T02:57:21.724Z,193.38
2024-03-24T02:58:21.952Z,193.77
2024-03-24T02:59:21.917Z,194.49
2024-03-24T03:00:22.051Z,194.27
2024-03-24T03:01:22.106Z,193.50
2024-03-24T03:02:22.169Z,193.11
2024-03-24T03:03:22.295Z,194.19
2024-03-24T03:04:22.383Z,193.77
2024-03-24T03:05:22.447Z,193.38
2024-03-24T03:06:22.545Z,194.33
2024-03-24T03:07:22.673Z,196.00
2024-03-24T03:08:22.745Z,193.11
2024-03-24T03:09:22.796Z,195.91
2024-03-24T03:10:22.920Z,197.50
2024-03-24T03:11:22.999Z,196.25
2024-03-24T03:12:23.090Z,196.01
2024-03-24T03:13:23.214Z,197.63
2024-03-24T03:14:23.245Z,198.08
2024-03-24T03:15:23.335Z,197.07
2024-03-24T03:16:23.432Z,196.01
2024-03-24T03:17:23.626Z,195.72
2024-03-24T03:18:23.644Z,197.73
2024-03-24T03:19:23.727Z,196.63
2024-03-24T03:20:23.794Z,197.80
2024-03-24T03:21:23.885Z,196.41
2024-03-24T03:22:23.958Z,198.40
2024-03-24T03:23:24.070Z,198.52
2024-03-24T03:24:24.131Z,197.12
2024-03-24T03:25:24.240Z,195.72
2024-03-24T03:26:24.280Z,194.95
2024-03-24T03:27:24.473Z,198.08
2024-03-24T03:28:24.465Z,197.08
2024-03-24T03:29:24.545Z,197.30
2024-03-24T03:30:24.635Z,195.48
2024-03-24T03:31:24.708Z,197.22
2024-03-24T03:32:24.860Z,194.50
2024-03-24T03:33:24.976Z,199.35
2024-03-24T03:34:24.939Z,196.35
2024-03-24T03:35:25.038Z,196.80
2024-03-24T03:36:25.121Z,196.29
2024-03-24T03:37:25.170Z,198.59
2024-03-24T03:38:25.263Z,197.24
2024-03-24T03:39:25.331Z,195.93
2024-03-24T03:40:25.411Z,193.53
2024-03-24T03:41:25.510Z,195.37
2024-03-24T03:42:25.583Z,195.28
2024-03-24T03:43:25.676Z,196.48
2024-03-24T03:44:25.759Z,199.25
2024-03-24T03:45:25.813Z,197.67
2024-03-24T03:46:25.896Z,198.85
2024-03-24T03:47:25.990Z,197.13
2024-03-24T03:48:26.201Z,198.18
2024-03-24T03:49:26.164Z,199.62
2024-03-24T03:50:26.222Z,197.20
2024-03-24T03:51:26.312Z,199.45
2024-03-24T03:52:26.465Z,198.32
2024-03-24T03:53:26.568Z,198.92
2024-03-24T03:54:26.631Z,195.46
2024-03-24T03:55:26.728Z,195.91
2024-03-24T03:56:26.818Z,193.91
2024-03-24T03:57:26.922Z,197.02
2024-03-24T03:58:26.968Z,193.35
2024-03-24T03:59:27.052Z,194.14
2024-03-24T04:00:27.134Z,192.11
2024-03-24T04:01:27.188Z,192.43
2024-03-24T04:02:27.298Z,193.41
2024-03-24T04:03:27.492Z,191.75
2024-03-24T04:04:27.447Z,191.93
2024-03-24T04:05:27.526Z,191.51
2024-03-24T04:06:27.622Z,189.65
2024-03-24T04:07:27.745Z,186.72
2024-03-24T04:08:27.770Z,185.58
2024-03-24T04:09:27.863Z,184.53
2024-03-24T04:10:27.910Z,185.47
2024-03-24T04:11:27.993Z,185.95
2024-03-24T04:12:28.080Z,186.33
2024-03-24T04:13:28.163Z,183.37
2024-03-24T04:14:28.236Z,185.54
2024-03-24T04:15:28.307Z,187.20
2024-03-24T04:16:28.398Z,186.59
2024-03-24T04:17:28.589Z,186.66
2024-03-24T04:18:28.570Z,188.26
2024-03-24T04:19:28.650Z,188.89
2024-03-24T04:20:28.743Z,187.93
2024-03-24T04:21:28.840Z,190.46
2024-03-24T04:22:28.919Z,193.39
2024-03-24T04:23:29.004Z,195.59
2024-03-24T04:24:29.062Z,197.76
2024-03-24T04:25:29.171Z,196.05
2024-03-24T04:26:29.246Z,194.64
2024-03-24T04:27:29.323Z,192.49
2024-03-24T04:28:29.400Z,192.73
2024-03-24T04:29:29.461Z,193.94
2024-03-24T04:30:29.564Z,192.52
2024-03-24T04:31:29.620Z,191.61
2024-03-24T04:32:29.731Z,192.76
2024-03-24T04:33:29.842Z,193.14
2024-03-24T04:34:29.872Z,192.55
2024-03-24T04:35:30.037Z,192.07
2024-03-24T04:36:30.104Z,193.89
2024-03-24T04:37:30.196Z,194.64
2024-03-24T04:38:30.266Z,196.11
2024-03-24T04:39:30.307Z,195.23
2024-03-24T04:40:30.406Z,197.10
2024-03-24T04:41:37.697Z,50.00
2024-03-24T04:42:37.676Z,50.00
2024-03-24T04:43:37.680Z,50.00
2024-03-24T04:44:37.686Z,50.00
2024-03-24T04:45:37.696Z,50.00
2024-03-24T04:46:37.669Z,52.84
2024-03-24T04:47:37.672Z,51.04
2024-03-24T04:48:37.676Z,52.20
2024-03-24T04:49:37.676Z,50.00
2024-03-24T04:50:37.692Z,52.17
2024-03-24T04:51:37.668Z,51.84
2024-03-24T04:52:37.682Z,53.26
2024-03-24T04:53:37.712Z,54.20
2024-03-24T04:54:37.704Z,53.14
2024-03-24T04:55:37.692Z,55.69
2024-03-24T04:56:37.682Z,53.16
2024-03-24T04:57:37.703Z,54.60
2024-03-24T04:58:37.722Z,55.04
2024-03-24T04:59:37.696Z,52.46
2024-03-24T05:00:37.704Z,54.53
2024-03-24T05:01:37.699Z,51.78
2024-03-24T05:02:37.723Z,53.64
2024-03-24T05:03:37.687Z,53.54
2024-03-24T05:04:37.720Z,54.95
2024-03-24T05:05:37.725Z,54.79
2024-03-24T05:06:37.700Z,53.21
2024-03-24T05:07:37.708Z,55.36
2024-03-24T05:08:37.757Z,55.64
2024-03-24T05:09:37.701Z,55.58
2024-03-24T05:10:37.704Z,53.70
2024-03-24T05:11:37.718Z,55.21
2024-03-24T05:12:37.708Z,52.02
2024-03-24T05:13:37.731Z,54.08
2024-03-24T05:14:37.744Z,52.02
2024-03-24T05:15:37.744Z,52.80
2024-03-24T05:16:37.764Z,51.40
2024-03-24T05:17:37.742Z,53.12
2024-03-24T05:18:37.751Z,53.42
2024-03-24T05:19:37.730Z,54.42
2024-03-24T05:20:37.727Z,53.90
2024-03-24T05:21:37.735Z,57.09
2024-03-24T05:22:37.751Z,54.20
2024-03-24T05:23:37.751Z,54.43
2024-03-24T05:24:37.722Z,53.58
2024-03-24T05:25:37.742Z,56.12
2024-03-24T05:26:37.738Z,51.00
2024-03-24T05:27:37.730Z,51.27
2024-03-24T05:28:46.536Z,52.57
2024-03-24T05:29:38.772Z,52.57
2024-03-24T05:30:37.751Z,51.52
2024-03-24T05:31:37.748Z,50.41
2024-03-24T05:32:37.740Z,50.12
2024-03-24T05:33:37.821Z,49.46
2024-03-24T05:34:37.821Z,53.29
2024-03-24T05:35:37.807Z,51.47
2024-03-24T05:36:37.807Z,52.08
2024-03-24T05:37:37.822Z,51.32
2024-03-24T05:38:37.799Z,51.97
2024-03-24T05:39:38.842Z,50.00
2024-03-24T05:40:37.918Z,51.15
2024-03-24T05:41:37.972Z,50.97
2024-03-24T05:42:37.977Z,52.03
2024-03-24T05:43:38.041Z,51.25
2024-03-24T05:44:38.108Z,53.31
2024-03-24T05:45:38.105Z,54.66
2024-03-24T05:46:38.140Z,57.58
2024-03-24T05:47:38.187Z,58.40
2024-03-24T05:48:38.236Z,55.56
2024-03-24T05:49:38.321Z,56.72
2024-03-24T05:50:38.374Z,57.29
2024-03-24T05:51:38.462Z,58.28
2024-03-24T05:52:38.526Z,58.43
2024-03-24T05:53:38.609Z,57.93
2024-03-24T05:54:38.712Z,60.82
2024-03-24T05:55:38.791Z,59.22
2024-03-24T05:56:38.887Z,59.37
2024-03-24T05:57:38.949Z,60.00
2024-03-24T05:58:39.043Z,59.93
2024-03-24T05:59:39.125Z,60.64
2024-03-24T06:00:39.196Z,60.49
2024-03-24T06:01:40.098Z,61.29
2024-03-24T06:02:39.361Z,59.88
2024-03-24T06:03:39.412Z,59.12
2024-03-24T06:04:39.475Z,60.11
2024-03-24T06:05:39.504Z,58.87
2024-03-24T06:06:39.546Z,62.21
2024-03-24T06:07:39.580Z,60.39
2024-03-24T06:08:39.618Z,60.17
2024-03-24T06:09:39.676Z,60.71
2024-03-24T06:10:39.760Z,61.84
2024-03-24T06:11:39.821Z,60.74
2024-03-24T06:12:39.835Z,61.32
2024-03-24T06:13:39.863Z,61.56
2024-03-24T06:14:39.981Z,60.29
2024-03-24T06:15:40.059Z,60.91
2024-03-24T06:16:40.103Z,60.46
2024-03-24T06:17:40.232Z,60.15
2024-03-24T06:18:40.299Z,59.73
2024-03-24T06:19:40.392Z,59.37
2024-03-24T06:20:40.446Z,59.77
2024-03-24T06:21:40.549Z,59.08
2024-03-24T06:22:40.654Z,58.99
2024-03-24T06:23:40.718Z,59.26
2024-03-24T06:24:40.785Z,56.66
2024-03-24T06:25:40.870Z,60.47
2024-03-24T06:26:40.971Z,59.44
2024-03-24T06:27:41.076Z,59.71
2024-03-24T06:28:41.166Z,64.63
2024-03-24T06:29:41.205Z,61.35
2024-03-24T06:30:41.330Z,63.24
2024-03-24T06:31:43.850Z,59.22
2024-03-24T06:32:41.397Z,59.43
2024-03-24T06:33:41.394Z,59.67
2024-03-24T06:34:41.410Z,59.91
2024-03-24T06:35:41.420Z,59.74
2024-03-24T06:36:41.381Z,62.65
2024-03-24T06:37:41.398Z,62.53
2024-03-24T06:38:41.390Z,61.78
2024-03-24T06:39:41.395Z,62.48
2024-03-24T06:40:41.391Z,60.94
2024-03-24T06:41:41.410Z,60.76
2024-03-24T06:42:41.385Z,58.57
2024-03-24T06:43:41.404Z,59.73
2024-03-24T06:44:41.425Z,57.80
2024-03-24T06:45:41.419Z,60.29
2024-03-24T06:46:41.411Z,59.57
2024-03-24T06:47:41.446Z,58.58
2024-03-24T06:48:41.430Z,59.05
2024-03-24T06:49:41.479Z,61.79
2024-03-24T06:50:41.415Z,60.63
2024-03-24T06:51:41.423Z,62.24
2024-03-24T06:52:41.440Z,61.33
2024-03-24T06:53:41.428Z,61.06
2024-03-24T06:54:41.451Z,60.90
2024-03-24T06:55:41.458Z,60.20
2024-03-24T06:56:41.454Z,62.09
2024-03-24T06:57:41.461Z,62.03
2024-03-24T06:58:41.465Z,61.28
2024-03-24T06:59:41.433Z,59.82
2024-03-24T07:00:41.471Z,59.71
2024-03-24T07:01:41.444Z,58.46
2024-03-24T07:02:41.452Z,58.76
2024-03-24T07:03:41.515Z,55.08
2024-03-24T07:04:41.554Z,52.57
2024-03-24T07:05:41.660Z,52.28
2024-03-24T07:06:41.728Z,50.86
2024-03-24T07:07:41.831Z,50.19
2024-03-24T07:08:41.910Z,50.00
2024-03-24T07:09:41.985Z,50.00
2024-03-24T07:10:42.118Z,51.13
2024-03-24T07:11:42.204Z,50.00
2024-03-24T07:12:42.305Z,52.54
2024-03-24T07:13:42.355Z,53.80
2024-03-24T07:14:42.423Z,52.63
2024-03-24T07:15:42.619Z,52.83
2024-03-24T07:16:42.629Z,53.39
2024-03-24T07:17:42.777Z,57.11
2024-03-24T07:18:42.789Z,57.03
2024-03-24T07:19:42.871Z,53.80
2024-03-24T07:20:42.962Z,53.81
2024-03-24T07:21:43.057Z,57.65
2024-03-24T07:22:43.227Z,55.32
2024-03-24T07:23:43.321Z,53.75
2024-03-24T07:24:43.417Z,52.81
2024-03-24T07:25:43.492Z,55.07
2024-03-24T07:26:43.555Z,55.13
2024-03-24T07:27:43.667Z,54.96
2024-03-24T07:28:43.801Z,54.23
2024-03-24T07:29:43.834Z,57.07
2024-03-24T07:30:43.933Z,57.24
2024-03-24T07:31:44.052Z,57.01
2024-03-24T07:32:44.118Z,57.52
2024-03-24T07:33:44.223Z,59.03
2024-03-24T07:34:44.294Z,56.00
2024-03-24T07:35:44.376Z,55.06
2024-03-24T07:36:44.469Z,56.64
2024-03-24T07:37:44.561Z,57.62
2024-03-24T07:38:44.667Z,57.82
2024-03-24T07:39:44.734Z,54.39
2024-03-24T07:40:44.869Z,54.46
2024-03-24T07:41:47.720Z,53.79
2024-03-24T07:42:44.998Z,53.64
2024-03-24T07:43:44.976Z,54.33
2024-03-24T07:44:44.994Z,53.46
2024-03-24T07:45:44.990Z,51.06
2024-03-24T07:46:44.982Z,50.23
2024-03-24T07:47:44.989Z,50.00
2024-03-24T07:49:45.000Z,52.97
2024-03-24T07:50:44.972Z,51.58
2024-03-24T07:51:44.995Z,50.52
2024-03-24T07:52:44.983Z,52.86
2024-03-24T07:53:44.991Z,52.71
2024-03-24T07:54:44.986Z,52.89
2024-03-24T07:55:44.999Z,50.58
2024-03-24T07:56:45.030Z,50.86
2024-03-24T07:57:45.001Z,51.39
2024-03-24T07:58:45.007Z,52.70
2024-03-24T07:59:44.990Z,52.77
2024-03-24T08:00:45.020Z,54.46
2024-03-24T08:01:45.002Z,53.98
2024-03-24T08:02:45.034Z,54.41
2024-03-24T08:03:45.015Z,57.67
2024-03-24T08:04:45.010Z,55.76
2024-03-24T08:05:45.023Z,57.69
2024-03-24T08:06:45.039Z,57.95
2024-03-24T08:07:45.026Z,61.71
2024-03-24T08:08:45.097Z,61.23
2024-03-24T08:09:45.032Z,59.96
2024-03-24T08:10:45.091Z,59.31
2024-03-24T08:11:45.035Z,58.74
2024-03-24T08:12:45.039Z,57.75
2024-03-24T08:13:45.047Z,54.19
2024-03-24T08:14:45.052Z,53.61
2024-03-24T08:15:45.038Z,51.65
2024-03-24T08:16:45.024Z,52.46
2024-03-24T08:17:45.043Z,50.93
2024-03-24T08:18:45.055Z,52.04
2024-03-24T08:19:45.050Z,51.67
2024-03-24T08:20:45.107Z,53.56
2024-03-24T08:21:45.120Z,53.81
2024-03-24T08:22:45.147Z,54.03
2024-03-24T08:23:45.205Z,52.32
2024-03-24T08:24:45.248Z,52.01
2024-03-24T08:25:45.306Z,51.17
2024-03-24T08:26:45.436Z,51.61
2024-03-24T08:27:45.493Z,52.27
2024-03-24T08:28:45.614Z,54.93
2024-03-24T08:29:45.709Z,53.11
2024-03-24T08:30:45.751Z,51.01
2024-03-24T08:31:45.843Z,51.66
2024-03-24T08:32:45.931Z,54.81
2024-03-24T08:33:46.038Z,53.79
2024-03-24T08:34:46.148Z,52.29
2024-03-24T08:35:46.238Z,54.52
2024-03-24T08:36:46.305Z,55.59
2024-03-24T08:37:46.427Z,55.87
2024-03-24T08:38:46.481Z,54.96
2024-03-24T08:39:46.530Z,52.64
2024-03-24T08:40:46.636Z,50.46
2024-03-24T08:41:46.809Z,50.00
2024-03-24T08:42:46.819Z,52.22
2024-03-24T08:43:46.912Z,50.83
2024-03-24T08:44:47.016Z,51.09
2024-03-24T08:45:47.102Z,55.68
2024-03-24T08:46:47.201Z,54.11
2024-03-24T08:47:47.288Z,55.11
2024-03-24T08:48:47.429Z,56.35
2024-03-24T08:49:47.460Z,54.50
2024-03-24T08:50:47.573Z,56.86
2024-03-24T08:51:47.628Z,56.37
2024-03-24T08:52:47.724Z,54.40
2024-03-24T08:53:47.824Z,54.55
2024-03-24T08:54:47.917Z,54.11
2024-03-24T08:55:47.999Z,56.16
2024-03-24T08:56:48.087Z,54.96
2024-03-24T08:57:48.193Z,60.61
2024-03-24T08:58:48.297Z,52.66
2024-03-24T08:59:48.366Z,53.18
2024-03-24T09:00:48.463Z,56.37
2024-03-24T09:01:48.565Z,52.84
2024-03-24T09:02:48.633Z,53.58
2024-03-24T09:03:48.703Z,54.89
2024-03-24T09:04:48.796Z,54.94
2024-03-24T09:05:48.889Z,53.73
2024-03-24T09:06:48.960Z,55.20
2024-03-24T09:07:49.092Z,50.67
2024-03-24T09:08:49.183Z,52.61
2024-03-24T09:09:49.264Z,52.68
2024-03-24T09:10:49.362Z,50.98
2024-03-24T09:11:49.445Z,52.11
2024-03-24T09:12:49.511Z,50.00
2024-03-24T09:13:49.631Z,51.36
2024-03-24T09:14:49.710Z,52.79
2024-03-24T09:15:49.787Z,51.39
2024-03-24T09:16:49.860Z,55.60
2024-03-24T09:17:49.956Z,55.61
2024-03-24T09:18:50.042Z,54.63
2024-03-24T09:19:50.139Z,51.18
2024-03-24T09:20:50.184Z,53.84
2024-03-24T09:21:50.294Z,50.72
2024-03-24T09:22:50.352Z,50.55
2024-03-24T09:23:52.859Z,53.68
2024-03-24T09:24:50.451Z,56.49
2024-03-24T09:25:50.473Z,57.10
2024-03-24T09:26:50.463Z,59.39
2024-03-24T09:27:50.475Z,60.11
2024-03-24T09:28:50.477Z,59.20
2024-03-24T09:29:50.478Z,60.21
2024-03-24T09:30:50.502Z,59.90
2024-03-24T09:31:50.479Z,61.08
2024-03-24T09:32:50.467Z,62.51
2024-03-24T09:33:50.479Z,63.66
2024-03-24T09:34:53.597Z,65.46
2024-03-24T09:35:51.485Z,65.55
2024-03-24T09:36:50.504Z,66.27
2024-03-24T09:37:50.508Z,67.10
2024-03-24T09:38:50.496Z,65.98
2024-03-24T09:39:50.490Z,67.64
2024-03-24T09:40:50.537Z,66.09
2024-03-24T09:41:50.541Z,64.40
2024-03-24T09:42:50.548Z,66.13
2024-03-24T09:43:50.536Z,63.99
2024-03-24T09:44:50.591Z,65.91
2024-03-24T09:45:50.553Z,66.25
2024-03-24T09:46:50.618Z,67.91
2024-03-24T09:47:50.724Z,69.88
2024-03-24T09:48:50.777Z,67.60
2024-03-24T09:49:50.850Z,70.37
2024-03-24T09:50:50.962Z,70.63
2024-03-24T09:51:51.023Z,69.60
2024-03-24T09:52:51.113Z,73.74
2024-03-24T09:53:51.172Z,76.25
2024-03-24T09:54:51.272Z,76.03
2024-03-24T09:55:51.350Z,78.92
2024-03-24T09:56:51.455Z,78.09
2024-03-24T09:57:57.182Z,79.43
2024-03-24T09:58:52.542Z,79.48
2024-03-24T09:59:51.524Z,79.45
2024-03-24T10:00:51.528Z,79.97
2024-03-24T10:01:51.534Z,81.37
2024-03-24T10:02:51.543Z,82.29
2024-03-24T10:03:51.550Z,81.52
2024-03-24T10:04:51.544Z,81.82
2024-03-24T10:05:51.547Z,83.58
2024-03-24T10:06:51.551Z,83.77
2024-03-24T10:07:51.529Z,83.12
2024-03-24T10:08:51.598Z,85.34
2024-03-24T10:09:51.690Z,88.20
2024-03-24T10:10:51.806Z,89.29
2024-03-24T10:11:51.882Z,89.09
2024-03-24T10:12:51.937Z,85.39
2024-03-24T10:13:52.103Z,87.92
2024-03-24T10:14:52.171Z,87.55
2024-03-24T10:15:52.240Z,89.24
2024-03-24T10:16:52.301Z,86.95
2024-03-24T10:17:52.427Z,87.17
2024-03-24T10:18:52.492Z,91.17
2024-03-24T10:19:52.603Z,90.01
2024-03-24T10:20:52.712Z,92.55
2024-03-24T10:21:52.889Z,88.76
2024-03-24T10:22:52.891Z,91.23
2024-03-24T10:23:52.978Z,91.47
2024-03-24T10:24:53.074Z,93.61
2024-03-24T10:25:53.166Z,93.24
2024-03-24T10:26:53.247Z,94.93
2024-03-24T10:27:53.332Z,94.43
2024-03-24T10:28:53.422Z,96.10
2024-03-24T10:29:53.519Z,96.48
2024-03-24T10:30:53.592Z,97.05
2024-03-24T10:31:53.692Z,96.07
2024-03-24T10:32:53.784Z,98.77
2024-03-24T10:33:53.853Z,94.65
2024-03-24T10:34:53.943Z,94.81
2024-03-24T10:35:54.068Z,95.82
2024-03-24T10:36:54.110Z,95.33
2024-03-24T10:37:54.224Z,96.53
2024-03-24T10:38:54.331Z,101.38
2024-03-24T10:39:54.369Z,97.12
2024-03-24T10:40:55.114Z,97.01
2024-03-24T10:41:54.552Z,96.75
2024-03-24T10:42:54.562Z,100.96
2024-03-24T10:43:54.597Z,98.35
2024-03-24T10:44:54.674Z,98.24
2024-03-24T10:45:54.675Z,96.28
2024-03-24T10:46:54.750Z,97.39
2024-03-24T10:47:54.777Z,99.08
2024-03-24T10:48:54.808Z,99.81
2024-03-24T10:49:54.841Z,97.77
2024-03-24T10:50:54.879Z,98.65
2024-03-24T10:51:54.923Z,98.21
2024-03-24T10:52:56.238Z,103.20
2024-03-24T10:53:55.113Z,100.71
2024-03-24T10:54:55.171Z,104.68
2024-03-24T10:55:55.166Z,102.03
2024-03-24T10:56:55.188Z,103.41
2024-03-24T10:57:55.243Z,103.97
2024-03-24T10:58:55.319Z,103.20
2024-03-24T10:59:55.354Z,102.56
2024-03-24T11:00:55.359Z,102.83
2024-03-24T11:01:55.420Z,104.30
2024-03-24T11:02:55.432Z,99.77
2024-03-24T11:03:55.490Z,99.71
2024-03-24T11:04:55.529Z,101.01
2024-03-24T11:05:55.549Z,99.88
2024-03-24T11:06:55.647Z,100.52
2024-03-24T11:07:55.762Z,98.80
2024-03-24T11:08:55.835Z,100.06
2024-03-24T11:09:55.940Z,98.07
2024-03-24T11:10:56.045Z,98.14
2024-03-24T11:11:56.146Z,95.28
2024-03-24T11:12:56.223Z,98.22
2024-03-24T11:13:56.333Z,96.67
2024-03-24T11:14:56.419Z,94.19
2024-03-24T11:15:56.530Z,98.62
2024-03-24T11:16:56.619Z,95.25
2024-03-24T11:17:56.743Z,94.21
2024-03-24T11:18:57.271Z,93.26
2024-03-24T11:19:56.966Z,95.61
2024-03-24T11:20:57.084Z,97.34
2024-03-24T11:21:57.147Z,98.09
2024-03-24T11:22:57.252Z,96.91
2024-03-24T11:23:57.304Z,97.09
2024-03-24T11:24:57.407Z,96.80
2024-03-24T11:25:57.524Z,95.91
2024-03-24T11:26:57.622Z,94.70
2024-03-24T11:27:57.735Z,96.12
2024-03-24T11:28:57.839Z,97.01
2024-03-24T11:29:57.909Z,94.75
2024-03-24T11:30:58.018Z,95.46
2024-03-24T11:31:58.105Z,94.08
2024-03-24T11:32:58.176Z,93.96
2024-03-24T11:33:58.292Z,97.10
2024-03-24T11:34:58.419Z,94.06
2024-03-24T11:35:58.466Z,94.12
2024-03-24T11:36:58.572Z,95.43
2024-03-24T11:37:58.685Z,96.73
2024-03-24T11:38:58.754Z,94.87
2024-03-24T11:39:58.902Z,95.37
2024-03-24T11:40:58.979Z,96.12
2024-03-24T11:41:59.071Z,92.74
2024-03-24T11:42:59.176Z,92.12
2024-03-24T11:43:59.289Z,93.22
2024-03-24T11:44:59.391Z,91.33
2024-03-24T11:45:59.494Z,86.69
2024-03-24T11:46:59.609Z,88.08
2024-03-24T11:47:59.681Z,90.51
2024-03-24T11:48:59.762Z,85.66
2024-03-24T11:49:59.886Z,89.97
2024-03-24T11:50:59.955Z,89.98
2024-03-24T11:52:00.085Z,90.51
2024-03-24T11:53:00.177Z,87.27
2024-03-24T11:54:00.268Z,88.28
2024-03-24T11:55:00.375Z,88.24
2024-03-24T11:56:00.486Z,89.51
2024-03-24T11:57:00.575Z,87.47
2024-03-24T11:58:00.667Z,86.27
2024-03-24T11:59:00.764Z,89.66
2024-03-24T12:00:00.877Z,87.00
2024-03-24T12:01:00.978Z,86.09
2024-03-24T12:02:01.043Z,86.98
2024-03-24T12:03:01.171Z,85.91
2024-03-24T12:04:01.247Z,87.69
2024-03-24T12:05:01.442Z,87.11
2024-03-24T12:06:01.497Z,85.13
2024-03-24T12:07:01.545Z,84.62
2024-03-24T12:08:01.650Z,86.14
2024-03-24T12:09:01.747Z,86.70
2024-03-24T12:10:01.887Z,85.02
2024-03-24T12:11:01.975Z,85.83
2024-03-24T12:12:02.045Z,82.65
2024-03-24T12:13:02.196Z,83.47
2024-03-24T12:14:02.300Z,82.91
2024-03-24T12:15:02.410Z,84.31
2024-03-24T12:16:02.517Z,82.11
2024-03-24T12:17:02.600Z,82.38
2024-03-24T12:18:02.686Z,84.35
2024-03-24T12:19:02.807Z,86.75
2024-03-24T12:20:02.931Z,83.75
2024-03-24T12:21:03.995Z,83.16
2024-03-24T12:22:03.135Z,82.08
2024-03-24T12:23:03.208Z,79.08
2024-03-24T12:24:03.291Z,81.37
2024-03-24T12:25:03.407Z,80.22
2024-03-24T12:26:03.517Z,80.92
2024-03-24T12:27:03.571Z,83.36
2024-03-24T12:28:03.694Z,82.55
2024-03-24T12:29:03.771Z,82.09
2024-03-24T12:30:03.827Z,83.70
2024-03-24T12:31:03.912Z,83.60
2024-03-24T12:32:04.026Z,83.65
2024-03-24T12:33:04.087Z,84.16
2024-03-24T12:34:04.180Z,88.91
2024-03-24T12:35:04.294Z,86.35
2024-03-24T12:36:04.392Z,85.98
2024-03-24T12:37:04.507Z,83.60
2024-03-24T12:38:04.573Z,81.11
2024-03-24T12:39:04.658Z,71.89
2024-03-24T12:40:04.776Z,59.37
2024-03-24T12:41:04.902Z,51.39
2024-03-24T12:42:04.957Z,50.22
2024-03-24T12:43:05.022Z,50.00
2024-03-24T12:44:05.092Z,50.00
2024-03-24T12:45:05.213Z,49.75